• Join FlightAware (Why Join?)
  • Login
  • US Flag 
Gobble Gobble! 
06:32PM EST


 

Airport Tracker/Info


-or-


 

Live Flight TrackerFlight Track Log ✈ N920AC ✈ 25-Oct-2013 ✈ KOPF - KAPF

Flight Track Log - Related Links

Times and Time Zones

All times are in EDT time to prevent confusion due to time zone crossing. See the N920AC flight status page for this flight to view local times or setup timezone preferences in your user account.

Time Position Orientation Groundspeed Altitude Reporting Facility
EDT Latitude Longitude Course Direction KTS MPH feet Rate Location/Type
09:32AM 25.9211 -80.2017 308° West 82 94 2,200  Level Miami Center
09:33AM 25.9414 -80.2231 317° Northwest 100 115 2,700 480 Climbing Miami Center
09:34AM 25.9575 -80.2489 305° West 100 115 3,200 480 Climbing Miami Center
09:35AM 25.9781 -80.2681 320° Northwest 91 105 3,700 420 Climbing Miami Center
09:36AM 26.0654 -80.4996 308° West  Level FlightAware Approximate
09:36AM 25.9856 -80.3006 284° West 123 142 4,100  Level Miami Center
09:37AM 26.0879 -80.5313 308° West  Level FlightAware Approximate
09:37AM 25.9889 -80.3400 275° West 121 139 4,000  Level Miami Center
09:38AM 26.0006 -80.3728 292° West 128 147 3,800 -60 Descending Miami Center
09:39AM 25.9956 -80.4050 260° West 112 129 3,900 120 Climbing Miami Center
09:40AM 25.9864 -80.4439 255° West 120 138 4,100  Climbing Miami Center
09:41AM 25.9833 -80.4808 265° West 128 147 3,900 -180 Descending Miami Center
09:41AM 25.9853 -80.4856 295° West 129 148 3,900  Level Miami Center
09:42AM 25.9803 -80.5222 261° West 125 144 3,900  Level Miami Center
09:42AM 25.9864 -80.5247 340° North 120 138 3,900 60 Level Miami Center
09:43AM 25.9897 -80.5594 276° West 120 138 4,000 60 Climbing Miami Center
09:43AM 25.9917 -80.5597 353° North 120 138 4,000  Level Miami Center
09:44AM 25.9969 -80.5967 279° West 120 138 4,000  Level Miami Center
09:45AM 26.0022 -80.6361 278° West 118 136 4,100 -60 Climbing Miami Center
09:46AM 26.0139 -80.6689 292° West 124 143 3,900 -120 Descending Miami Center
09:47AM 26.0172 -80.7083 275° West 124 143 3,900  Level Miami Center
09:48AM 26.0222 -80.7525 277° West 124 143 4,000  Climbing Miami Center
09:49AM 26.0300 -80.7803 287° West 124 143 3,900  Descending Miami Center
09:50AM 26.0350 -80.8222 278° West 129 148 4,000  Climbing Miami Center
09:51AM 26.0339 -80.8614 268° West 129 148 3,900  Descending Miami Center
09:52AM 26.0244 -80.9006 255° West 129 148 4,000  Climbing Miami Center
09:53AM 26.0172 -80.9372 258° West 129 148 3,900 -60 Descending Miami Center
09:54AM 26.0119 -80.9764 261° West 129 148 3,900  Level Miami Center
09:55AM 26.0150 -81.0156 275° West 129 148 3,900  Level Miami Center
09:56AM 26.0119 -81.0525 265° West 122 140 4,000  Climbing Miami Center
09:57AM 26.0108 -81.0872 268° West 122 140 4,000  Level Miami Center
09:58AM 26.0494 -81.1300 315° West 105 121 4,000  Level Miami Center
09:59AM 26.0650 -81.1631 298° West 117 135 4,000  Level Miami Center
10:00AM 26.0828 -81.1961 301° West 122 140 4,000  Level Miami Center
10:01AM 26.0817 -81.2353 268° West 122 140 4,000  Level Miami Center
10:02AM 26.0764 -81.2722 261° West 127 146 4,000  Level Miami Center
10:03AM 26.0711 -81.3111 261° West 132 152 4,000  Level Miami Center
10:04AM 26.0678 -81.3528 265° West 137 158 4,000  Level Miami Center
10:05AM 26.0644 -81.3919 265° West 137 158 4,000  Level Miami Center
10:06AM 26.0611 -81.4333 265° West 137 158 4,000 -240 Level Miami Center
10:07AM 26.0556 -81.4747 262° West 142 163 3,600 -420 Descending Miami Center
10:09AM 26.0870 -81.4942 331° Northwest  Level FlightAware Approximate
10:16AM 26.1500 -81.7310 270° West  Level FlightAware Approximate
10:17AM 26.1500 -81.7654 270° West  Level FlightAware Approximate
10:18AM 26.1500 -81.7667 270° West  Level FlightAware Approximate
10:19AM 26.1524 -81.7756 270° West  Level Estimated
10:20AM 26.1524 -81.7756 270° West  Level Estimated
10:21AM 26.1524 -81.7756 270° West  Level Estimated
10:22AM 26.1524 -81.7756 270° West  Level Estimated
10:23AM 26.1524 -81.7756 270° West  Level Estimated